TimeEST,TemperatureF,Dew PointF,Humidity,Sea Level PressureIn,VisibilityMPH,Wind Direction,Wind SpeedMPH,Gust SpeedMPH,PrecipitationIn,Events,Conditions,WindDirDegrees,DateUTC
12:55 AM,23.5,19.8,85,30.40,10.0,Calm,Calm,-,N/A,,Clear,0,2013-01-07 05:55:00
1:55 AM,20.3,17.4,89,30.40,10.0,Calm,Calm,-,N/A,,Clear,0,2013-01-07 06:55:00
2:55 AM,20.3,17.6,89,30.41,9.0,Calm,Calm,-,N/A,,Clear,0,2013-01-07 07:55:00
3:55 AM,19.2,17.1,91,30.44,7.0,Calm,Calm,-,N/A,,Clear,0,2013-01-07 08:55:00
4:55 AM,19.6,17.4,91,30.44,6.0,Calm,Calm,-,N/A,,Clear,0,2013-01-07 09:55:00
5:55 AM,18.9,16.5,91,30.45,6.0,Calm,Calm,-,N/A,,Clear,0,2013-01-07 10:55:00
6:55 AM,19.0,17.2,93,30.46,7.0,Calm,Calm,-,N/A,,Clear,0,2013-01-07 11:55:00
7:55 AM,18.3,15.6,89,30.46,7.0,ENE,3.5,-,N/A,,Clear,70,2013-01-07 12:55:00
8:55 AM,21.9,19.4,90,30.47,8.0,Calm,Calm,-,N/A,,Clear,0,2013-01-07 13:55:00
9:55 AM,27.3,23.0,84,30.48,10.0,East,4.6,-,N/A,,Clear,100,2013-01-07 14:55:00
10:55 AM,30.6,23.5,75,30.47,10.0,East,6.9,-,N/A,,Clear,90,2013-01-07 15:55:00
11:55 AM,34.2,23.2,64,30.46,10.0,East,4.6,-,N/A,,Clear,100,2013-01-07 16:55:00
12:55 PM,36.9,23.2,58,30.42,10.0,Calm,Calm,-,N/A,,Clear,0,2013-01-07 17:55:00
1:55 PM,39.6,23.5,53,30.38,10.0,East,4.6,-,N/A,,Clear,80,2013-01-07 18:55:00
2:55 PM,40.5,23.4,51,30.37,10.0,Calm,Calm,-,N/A,,Clear,0,2013-01-07 19:55:00
3:55 PM,41.4,23.5,49,30.35,10.0,Variable,3.5,-,N/A,,Clear,0,2013-01-07 20:55:00
4:55 PM,40.6,23.9,51,30.33,10.0,East,6.9,-,N/A,,Clear,90,2013-01-07 21:55:00
5:55 PM,36.0,22.8,59,30.32,10.0,ESE,4.6,-,N/A,,Clear,120,2013-01-07 22:55:00
6:55 PM,35.4,23.2,61,30.31,10.0,SE,4.6,-,N/A,,Clear,130,2013-01-07 23:55:00
7:55 PM,31.8,22.8,69,30.30,10.0,ESE,6.9,-,N/A,,Clear,120,2013-01-08 00:55:00
8:55 PM,32.0,24.1,73,30.25,10.0,East,6.9,-,N/A,,Clear,90,2013-01-08 01:55:00
9:55 PM,28.8,22.8,78,30.28,10.0,Calm,Calm,-,N/A,,Clear,0,2013-01-08 02:55:00
10:55 PM,26.1,22.6,87,30.28,10.0,Calm,Calm,-,N/A,,Clear,0,2013-01-08 03:55:00
11:55 PM,26.6,22.8,86,30.26,10.0,Calm,Calm,-,N/A,,Clear,0,2013-01-08 04:55:00